Siliana, Tunisia

2:48 PM CET on August 24, 2016 (GMT +0100)
Jendouba | | Change Station

Elev 472 ft 36.48 °N, 8.80 °E | Updated 48 minutes ago

Partly Cloudy
Partly Cloudy
88 °F
Feels Like 88 °F
N
6
Wind Variable Wind from Variable

Today
High -- | Low -- °F
--% Chance of Precip.
Yesterday
High -- | Low -- °F
Precip. -- in
Pressure 30.04 in
Visibility 6.2 miles
Clouds Few 2000 ft
Heat Index 88 °F
Dew Point 63 °F
Humidity 43%
Rainfall 0.00 in
Snow Depth Not available.
5:48 AM 7:00 PM
Waning Gibbous, 57% visible
METAR DTTN 241300Z VRB05KT 9999 FEW020 31/17 Q1017
Pressure 30.04 in
Visibility 6.2 miles
Clouds Few 2000 ft
Heat Index 88 °F
Dew Point 63 °F
Humidity 43%
Rainfall 0.00 in
Snow Depth Not available.
5:48 AM 7:00 PM
Waning Gibbous, 57% visible
METAR DTTN 241300Z VRB05KT 9999 FEW020 31/17 Q1017

10-Day Weather Forecast

No radar image for this location.
×

Almanac

Astronomy

Aug. 24, 2016 Rise Set
Actual Time
Civil Twilight
Nautical Twilight
Astronomical Twilight
Moon
Length of Visible Light
Length of Day
Tomorrow will be .
, % of the Moon is Illuminated

Today's Extremes

Country Highs Country Lows

Community

WunderPhotos

Upload Photos

1,934,598 photos uploaded!

WunderBlog® & News

Nearby

Air Quality

  Air Quality AQ Index Pollutant
Not available.

Snow Depth

Station Depth Elevation

Earthquake Activity

City Distance Mag. Time & Date
Minimum magnitude displayed is 2.5.

Coastal Water Temperatures

Place Temperature

Stations

Nearby Weather Stations

Station Location Temp. Windchill Dew Point Humidity Wind Precip. Elev Updated Type